Pagrindinis puslapis
METAR-TAF:

METAR-TAF

Oro uostai :

Arar, Saudo Arabija

platuma: 30-54N, ilguma: 041-08E, Aukštis: 555 m

Dabartinis oras

Ataskaita buvo paskelbta 32 minutes, ne 18:00 UTC
Vėjas 4 kt iš Šiaurės Vakarų
Temperatūra 26°C
Drėgmė 21%
Slėgis 1019 hPa
Matomumas 10 km arba daugiau
nėra debesų žemiau 1500 m ir nėra kamuolinių lietaus debesų

METAR: OERR 221800Z 32004KT CAVOK 26/02 Q1019 NOSIG

Laikas: 21:32 (18:32 UTC)

Prognozė

Ataskaita buvo paskelbta 7 valandos ir 32 minutes, ne 11:00 UTC
Prognozė galioja nuo 22 metu 12 UTC su 23 metu 18 UTC
Vėjas 8 kt iš Vakarų/Šiaurės Vakarų
Matomumas 10 km arba daugiau
nėra debesų žemiau 1500 m ir nėra kamuolinių lietaus debesų
Tapsmas
nuo 22 metu 18 UTC su 22 metu 20 UTC
Vėjas 3 kt nuo kintamojo kryptimis

TAF: OERR 221100Z 2212/2318 30008KT CAVOK BECMG 2218/2220 VRB03KT

Orai ataskaitas ir orų prognozės (METAR, TAF).

turimą stotys yra geltonos ir raudonos taškus žemėlapyje.

Perkelti pele per norėdami pamatyti stoties vardą.

Tada spustelėkite, norėdami matyti oro stebėjimo ir prognozės.

Norėdami pakeisti žemėlapį: spustelėkite ant žalios mygtukų su juodo kryžiaus žemyn,; žalią mygtuką su brūkšneliu, jei norite nutolinti; arba žalių rodyklių gretimoms žemėlapius.


METAR-TAF: